createdAt,value
2018-10-16T00:00:02.465Z,1019.48
2018-10-16T00:01:02.498Z,1019.44
2018-10-16T00:02:02.521Z,1019.43
2018-10-16T00:03:02.627Z,1019.43
2018-10-16T00:04:02.583Z,1019.40
2018-10-16T00:05:02.617Z,1019.38
2018-10-16T00:06:02.654Z,1019.37
2018-10-16T00:07:02.676Z,1019.35
2018-10-16T00:08:02.709Z,1019.34
2018-10-16T00:09:02.738Z,1019.29
2018-10-16T00:10:02.771Z,1019.27
2018-10-16T00:11:02.801Z,1019.25
2018-10-16T00:12:02.833Z,1019.26
2018-10-16T00:13:02.862Z,1019.18
2018-10-16T00:14:02.894Z,1019.12
2018-10-16T00:15:02.928Z,1019.14
2018-10-16T00:16:02.955Z,1019.12
2018-10-16T00:17:02.987Z,1019.14
2018-10-16T00:18:03.017Z,1019.10
2018-10-16T00:19:03.051Z,1019.14
2018-10-16T00:20:03.078Z,1019.16
2018-10-16T00:21:03.113Z,1019.16
2018-10-16T00:22:03.141Z,1019.14
2018-10-16T00:23:03.175Z,1019.18
2018-10-16T00:24:03.203Z,1019.17
2018-10-16T00:25:03.233Z,1019.16
2018-10-16T00:26:03.265Z,1019.14
2018-10-16T00:27:03.294Z,1019.12
2018-10-16T00:28:03.326Z,1019.12
2018-10-16T00:29:03.363Z,1019.12
2018-10-16T00:30:03.391Z,1019.14
2018-10-16T00:31:03.419Z,1019.09
2018-10-16T00:32:03.452Z,1019.12
2018-10-16T00:33:03.479Z,1019.06
2018-10-16T00:34:03.513Z,1019.09
2018-10-16T00:35:03.544Z,1019.06
2018-10-16T00:36:03.577Z,1019.05
2018-10-16T00:37:03.608Z,1019.03
2018-10-16T00:38:03.638Z,1019.05
2018-10-16T00:39:03.666Z,1019.01
2018-10-16T00:40:03.695Z,1018.97
2018-10-16T00:41:03.730Z,1018.97
2018-10-16T00:42:03.764Z,1018.96
2018-10-16T00:43:03.789Z,1018.99
2018-10-16T00:44:03.821Z,1018.96
2018-10-16T00:45:03.854Z,1018.95
2018-10-16T00:46:03.882Z,1018.94
2018-10-16T00:47:03.913Z,1018.97
2018-10-16T00:48:03.947Z,1018.98
2018-10-16T00:49:03.976Z,1019.01
2018-10-16T00:50:04.009Z,1019.02
2018-10-16T00:51:04.036Z,1019.02
2018-10-16T00:52:04.068Z,1019.02
2018-10-16T00:53:04.098Z,1019.06
2018-10-16T00:54:04.128Z,1019.10
2018-10-16T00:55:04.294Z,1019.11
2018-10-16T00:56:04.194Z,1019.15
2018-10-16T00:57:04.221Z,1019.10
2018-10-16T00:58:04.253Z,1019.17
2018-10-16T00:59:04.284Z,1019.18
2018-10-16T01:00:04.313Z,1019.24
2018-10-16T01:01:04.344Z,1019.20
2018-10-16T01:02:04.378Z,1019.23
2018-10-16T01:03:04.406Z,1019.22
2018-10-16T01:04:04.436Z,1019.25
2018-10-16T01:05:04.469Z,1019.28
2018-10-16T01:06:04.501Z,1019.30
2018-10-16T01:07:04.526Z,1019.28
2018-10-16T01:08:04.559Z,1019.28
2018-10-16T01:09:04.589Z,1019.25
2018-10-16T01:10:04.627Z,1019.26
2018-10-16T01:11:04.654Z,1019.25
2018-10-16T01:12:04.681Z,1019.26
2018-10-16T01:13:04.720Z,1019.28
2018-10-16T01:14:04.742Z,1019.31
2018-10-16T01:15:04.772Z,1019.31
2018-10-16T01:16:04.803Z,1019.34
2018-10-16T01:17:04.835Z,1019.34
2018-10-16T01:18:04.866Z,1019.31
2018-10-16T01:19:04.897Z,1019.34
2018-10-16T01:20:04.932Z,1019.30
2018-10-16T01:21:04.956Z,1019.30
2018-10-16T01:22:04.989Z,1019.32
2018-10-16T01:23:05.017Z,1019.29
2018-10-16T01:24:05.049Z,1019.28
2018-10-16T01:25:05.083Z,1019.30
2018-10-16T01:26:05.111Z,1019.29
2018-10-16T01:27:05.139Z,1019.32
2018-10-16T01:28:05.169Z,1019.30
2018-10-16T01:29:05.203Z,1019.32
2018-10-16T01:30:05.232Z,1019.34
2018-10-16T01:31:05.263Z,1019.32
2018-10-16T01:32:05.331Z,1019.32
2018-10-16T01:33:05.325Z,1019.33
2018-10-16T01:34:05.354Z,1019.36
2018-10-16T01:35:05.384Z,1019.42
2018-10-16T01:36:05.414Z,1019.39
2018-10-16T01:37:05.445Z,1019.35
2018-10-16T01:38:05.477Z,1019.35
2018-10-16T01:39:05.505Z,1019.33
2018-10-16T01:40:05.536Z,1019.36
2018-10-16T01:41:05.566Z,1019.35
2018-10-16T01:42:05.598Z,1019.35
2018-10-16T01:43:05.627Z,1019.39
2018-10-16T01:44:05.657Z,1019.40
2018-10-16T01:45:05.689Z,1019.39
2018-10-16T01:46:05.720Z,1019.43
2018-10-16T01:47:05.754Z,1019.40
2018-10-16T01:48:05.780Z,1019.41
2018-10-16T01:49:05.812Z,1019.41
2018-10-16T01:50:05.843Z,1019.40
2018-10-16T01:51:05.873Z,1019.37
2018-10-16T01:52:05.901Z,1019.36
2018-10-16T01:53:05.933Z,1019.39
2018-10-16T01:54:05.964Z,1019.37
2018-10-16T01:55:05.993Z,1019.41
2018-10-16T01:56:06.025Z,1019.40
2018-10-16T01:57:06.053Z,1019.37
2018-10-16T01:58:06.085Z,1019.35
2018-10-16T01:59:06.114Z,1019.36
2018-10-16T02:00:06.145Z,1019.37
2018-10-16T02:01:06.177Z,1019.41
2018-10-16T02:02:06.206Z,1019.43
2018-10-16T02:03:06.235Z,1019.43
2018-10-16T02:04:06.268Z,1019.37
2018-10-16T02:05:06.297Z,1019.39
2018-10-16T02:06:06.331Z,1019.38
2018-10-16T02:07:06.362Z,1019.35
2018-10-16T02:08:06.388Z,1019.32
2018-10-16T02:09:06.420Z,1019.36
2018-10-16T02:10:06.453Z,1019.40
2018-10-16T02:11:06.482Z,1019.39
2018-10-16T02:12:06.510Z,1019.34
2018-10-16T02:13:06.540Z,1019.36
2018-10-16T02:14:06.568Z,1019.42
2018-10-16T02:15:06.600Z,1019.45
2018-10-16T02:16:06.633Z,1019.43
2018-10-16T02:17:06.664Z,1019.44
2018-10-16T02:18:06.690Z,1019.42
2018-10-16T02:19:06.723Z,1019.39
2018-10-16T02:20:06.753Z,1019.42
2018-10-16T02:21:06.783Z,1019.40
2018-10-16T02:22:06.812Z,1019.43
2018-10-16T02:23:06.842Z,1019.43
2018-10-16T02:24:06.874Z,1019.46
2018-10-16T02:25:06.903Z,1019.43
2018-10-16T02:26:06.937Z,1019.44
2018-10-16T02:27:06.963Z,1019.41
2018-10-16T02:28:06.996Z,1019.46
2018-10-16T02:29:07.023Z,1019.44
2018-10-16T02:30:07.056Z,1019.47
2018-10-16T02:31:07.083Z,1019.45
2018-10-16T02:32:07.112Z,1019.44
2018-10-16T02:33:07.206Z,1019.48
2018-10-16T02:34:07.175Z,1019.45
2018-10-16T02:35:07.205Z,1019.42
2018-10-16T02:36:07.237Z,1019.42
2018-10-16T02:37:07.264Z,1019.47
2018-10-16T02:38:07.296Z,1019.48
2018-10-16T02:39:07.325Z,1019.47
2018-10-16T02:40:07.355Z,1019.50
2018-10-16T02:41:07.385Z,1019.49
2018-10-16T02:42:07.419Z,1019.49
2018-10-16T02:43:07.445Z,1019.50
2018-10-16T02:44:07.476Z,1019.48
2018-10-16T02:45:07.507Z,1019.47
2018-10-16T02:46:07.538Z,1019.49
2018-10-16T02:47:07.564Z,1019.44
2018-10-16T02:48:07.596Z,1019.44
2018-10-16T02:49:07.628Z,1019.44
2018-10-16T02:50:07.658Z,1019.44
2018-10-16T02:51:07.685Z,1019.43
2018-10-16T02:52:07.718Z,1019.46
2018-10-16T02:53:07.746Z,1019.49
2018-10-16T02:54:07.775Z,1019.50
2018-10-16T02:55:07.804Z,1019.51
2018-10-16T02:56:07.843Z,1019.53
2018-10-16T02:57:07.865Z,1019.48
2018-10-16T02:58:07.904Z,1019.47
2018-10-16T02:59:07.926Z,1019.43
2018-10-16T03:00:07.958Z,1019.48
2018-10-16T03:01:07.985Z,1019.53
2018-10-16T03:02:08.016Z,1019.48
2018-10-16T03:03:08.042Z,1019.47
2018-10-16T03:04:08.075Z,1019.49
2018-10-16T03:05:08.105Z,1019.46
2018-10-16T03:06:08.136Z,1019.41
2018-10-16T03:07:08.162Z,1019.46
2018-10-16T03:08:08.193Z,1019.41
2018-10-16T03:09:08.221Z,1019.42
2018-10-16T03:10:08.254Z,1019.43
2018-10-16T03:11:08.284Z,1019.45
2018-10-16T03:12:08.312Z,1019.46
2018-10-16T03:13:08.341Z,1019.40
2018-10-16T03:14:08.375Z,1019.41
2018-10-16T03:15:08.403Z,1019.40
2018-10-16T03:16:08.431Z,1019.40
2018-10-16T03:17:08.466Z,1019.39
2018-10-16T03:18:08.498Z,1019.41
2018-10-16T03:19:08.527Z,1019.42
2018-10-16T03:20:08.551Z,1019.43
2018-10-16T03:21:08.584Z,1019.42
2018-10-16T03:22:08.610Z,1019.43
2018-10-16T03:23:08.642Z,1019.46
2018-10-16T03:24:08.670Z,1019.47
2018-10-16T03:25:08.702Z,1019.53
2018-10-16T03:26:08.728Z,1019.47
2018-10-16T03:27:08.758Z,1019.49
2018-10-16T03:28:08.788Z,1019.48
2018-10-16T03:29:08.818Z,1019.47
2018-10-16T03:30:08.847Z,1019.47
2018-10-16T03:31:08.877Z,1019.43
2018-10-16T03:32:08.907Z,1019.45
2018-10-16T03:33:08.940Z,1019.46
2018-10-16T03:34:08.973Z,1019.46
2018-10-16T03:35:08.995Z,1019.46
2018-10-16T03:36:09.025Z,1019.47
2018-10-16T03:37:09.054Z,1019.44
2018-10-16T03:38:09.085Z,1019.40
2018-10-16T03:39:09.117Z,1019.41
2018-10-16T03:40:09.146Z,1019.39
2018-10-16T03:41:09.173Z,1019.41
2018-10-16T03:42:09.205Z,1019.41
2018-10-16T03:43:09.232Z,1019.46
2018-10-16T03:44:09.263Z,1019.40
2018-10-16T03:45:09.291Z,1019.45
2018-10-16T03:46:09.328Z,1019.45
2018-10-16T03:47:09.352Z,1019.41
2018-10-16T03:48:09.379Z,1019.41
2018-10-16T03:49:09.410Z,1019.44
2018-10-16T03:50:09.443Z,1019.42
2018-10-16T03:51:09.469Z,1019.43
2018-10-16T03:52:09.497Z,1019.43
2018-10-16T03:53:09.529Z,1019.45
2018-10-16T03:54:09.562Z,1019.43
2018-10-16T03:55:09.593Z,1019.49
2018-10-16T03:56:09.621Z,1019.43
2018-10-16T03:57:09.714Z,1019.43
2018-10-16T03:58:09.684Z,1019.44
2018-10-16T03:59:09.703Z,1019.44
2018-10-16T04:00:09.736Z,1019.43
2018-10-16T04:01:09.762Z,1019.44
2018-10-16T04:02:09.791Z,1019.43
2018-10-16T04:03:09.823Z,1019.40
2018-10-16T04:04:09.855Z,1019.38
2018-10-16T04:05:09.881Z,1019.36
2018-10-16T04:06:09.914Z,1019.34
2018-10-16T04:07:09.941Z,1019.35
2018-10-16T04:08:09.968Z,1019.32
2018-10-16T04:09:09.997Z,1019.37
2018-10-16T04:10:10.025Z,1019.35
2018-10-16T04:11:10.054Z,1019.38
2018-10-16T04:12:10.084Z,1019.37
2018-10-16T04:13:10.113Z,1019.43
2018-10-16T04:14:10.241Z,1019.45
2018-10-16T04:15:10.173Z,1019.45
2018-10-16T04:16:10.207Z,1019.42
2018-10-16T04:17:10.232Z,1019.42
2018-10-16T04:18:10.260Z,1019.41
2018-10-16T04:19:10.286Z,1019.42
2018-10-16T04:20:10.316Z,1019.42
2018-10-16T04:21:10.344Z,1019.38
2018-10-16T04:22:10.401Z,1019.42
2018-10-16T04:23:10.401Z,1019.42
2018-10-16T04:24:10.435Z,1019.40
2018-10-16T04:25:10.462Z,1019.43
2018-10-16T04:26:10.489Z,1019.42
2018-10-16T04:27:10.521Z,1019.45
2018-10-16T04:28:10.548Z,1019.45
2018-10-16T04:29:10.595Z,1019.45
2018-10-16T04:30:10.609Z,1019.52
2018-10-16T04:31:10.636Z,1019.52
2018-10-16T04:32:10.664Z,1019.55
2018-10-16T04:33:10.691Z,1019.56
2018-10-16T04:34:10.719Z,1019.60
2018-10-16T04:35:10.752Z,1019.60
2018-10-16T04:36:10.786Z,1019.61
2018-10-16T04:37:10.805Z,1019.66
2018-10-16T04:38:10.836Z,1019.61
2018-10-16T04:39:10.865Z,1019.59
2018-10-16T04:40:10.894Z,1019.57
2018-10-16T04:41:10.924Z,1019.58
2018-10-16T04:42:10.955Z,1019.58
2018-10-16T04:43:10.982Z,1019.58
2018-10-16T04:44:11.008Z,1019.56
2018-10-16T04:45:11.038Z,1019.54
2018-10-16T04:46:11.067Z,1019.50
2018-10-16T04:47:11.097Z,1019.47
2018-10-16T04:48:11.126Z,1019.46
2018-10-16T04:49:11.156Z,1019.44
2018-10-16T04:50:11.182Z,1019.48
2018-10-16T04:51:11.207Z,1019.49
2018-10-16T04:52:11.240Z,1019.49
2018-10-16T04:53:11.267Z,1019.46
2018-10-16T04:54:11.295Z,1019.41
2018-10-16T04:55:11.378Z,1019.45
2018-10-16T04:56:11.352Z,1019.39
2018-10-16T04:57:11.385Z,1019.41
2018-10-16T04:58:11.411Z,1019.42
2018-10-16T04:59:11.439Z,1019.42
2018-10-16T05:00:11.472Z,1019.43
2018-10-16T05:01:11.497Z,1019.43
2018-10-16T05:02:11.525Z,1019.42
2018-10-16T05:03:11.552Z,1019.46
2018-10-16T05:04:11.687Z,1019.43
2018-10-16T05:05:11.611Z,1019.41
2018-10-16T05:06:11.640Z,1019.39
2018-10-16T05:07:11.669Z,1019.41
2018-10-16T05:08:11.698Z,1019.36
2018-10-16T05:09:11.726Z,1019.33
2018-10-16T05:10:11.757Z,1019.38
2018-10-16T05:11:11.781Z,1019.40
2018-10-16T05:12:11.811Z,1019.45
2018-10-16T05:13:11.893Z,1019.51
2018-10-16T05:14:11.870Z,1019.53
2018-10-16T05:15:11.896Z,1019.56
2018-10-16T05:16:11.927Z,1019.58
2018-10-16T05:17:11.955Z,1019.65
2018-10-16T05:18:11.985Z,1019.66
2018-10-16T05:19:12.150Z,1019.64
2018-10-16T05:20:12.040Z,1019.65
2018-10-16T05:21:12.069Z,1019.70
2018-10-16T05:22:12.099Z,1019.73
2018-10-16T05:23:12.134Z,1019.73
2018-10-16T05:24:12.160Z,1019.68
2018-10-16T05:25:12.185Z,1019.63
2018-10-16T05:26:12.238Z,1019.59
2018-10-16T05:27:12.250Z,1019.58
2018-10-16T05:28:12.275Z,1019.62
2018-10-16T05:29:12.304Z,1019.55
2018-10-16T05:30:12.331Z,1019.57
2018-10-16T05:31:12.453Z,1019.55
2018-10-16T05:32:12.394Z,1019.58
2018-10-16T05:33:12.417Z,1019.58
2018-10-16T05:34:12.446Z,1019.66
2018-10-16T05:35:12.475Z,1019.67
2018-10-16T05:36:12.504Z,1019.69
2018-10-16T05:37:12.535Z,1019.71
2018-10-16T05:38:12.562Z,1019.72
2018-10-16T05:39:12.690Z,1019.68
2018-10-16T05:40:12.620Z,1019.66
2018-10-16T05:41:12.649Z,1019.70
2018-10-16T05:42:12.678Z,1019.70
2018-10-16T05:43:12.708Z,1019.72
2018-10-16T05:44:12.737Z,1019.76
2018-10-16T05:45:12.765Z,1019.75
2018-10-16T05:46:12.799Z,1019.63
2018-10-16T05:47:12.826Z,1019.67
2018-10-16T05:48:12.857Z,1019.66
2018-10-16T05:49:12.884Z,1019.69
2018-10-16T05:50:12.913Z,1019.71
2018-10-16T05:51:12.945Z,1019.76
2018-10-16T05:52:12.972Z,1019.77
2018-10-16T05:53:13.008Z,1019.79
2018-10-16T05:54:13.045Z,1019.80
2018-10-16T05:55:13.051Z,1019.91
2018-10-16T05:56:13.083Z,1019.92
2018-10-16T05:57:13.112Z,1019.95
2018-10-16T05:58:13.142Z,1019.97
2018-10-16T05:59:13.172Z,1019.98
2018-10-16T06:00:13.209Z,1019.95
2018-10-16T06:01:13.238Z,1019.94
2018-10-16T06:02:13.264Z,1019.90
2018-10-16T06:03:13.292Z,1019.90
2018-10-16T06:04:13.326Z,1019.85
2018-10-16T06:05:13.359Z,1019.91
2018-10-16T06:06:13.391Z,1019.89
2018-10-16T06:07:13.418Z,1019.92
2018-10-16T06:08:13.449Z,1019.98
2018-10-16T06:09:13.481Z,1019.97
2018-10-16T06:10:13.515Z,1019.99
2018-10-16T06:11:13.544Z,1020.01
2018-10-16T06:12:13.591Z,1019.99
2018-10-16T06:13:13.610Z,1019.95
2018-10-16T06:14:13.639Z,1019.93
2018-10-16T06:15:13.673Z,1019.92
2018-10-16T06:16:13.704Z,1019.92
2018-10-16T06:17:13.736Z,1019.93
2018-10-16T06:18:13.768Z,1019.96
2018-10-16T06:19:13.801Z,1019.95
2018-10-16T06:20:13.832Z,1019.95
2018-10-16T06:21:13.866Z,1019.96
2018-10-16T06:22:13.899Z,1019.97
2018-10-16T06:23:13.931Z,1020.04
2018-10-16T06:24:13.964Z,1019.99
2018-10-16T06:25:13.996Z,1019.98
2018-10-16T06:26:14.080Z,1019.97
2018-10-16T06:27:14.061Z,1020.03
2018-10-16T06:28:14.095Z,1019.99
2018-10-16T06:29:14.129Z,1019.99
2018-10-16T06:30:14.243Z,1019.99
2018-10-16T06:31:14.194Z,1019.98
2018-10-16T06:32:14.232Z,1020.04
2018-10-16T06:33:14.313Z,1020.03
2018-10-16T06:34:14.295Z,1020.04
2018-10-16T06:35:14.329Z,1020.04
2018-10-16T06:36:14.364Z,1020.08
2018-10-16T06:37:14.399Z,1020.11
2018-10-16T06:38:14.432Z,1020.14
2018-10-16T06:39:14.466Z,1020.09
2018-10-16T06:40:14.500Z,1020.05
2018-10-16T06:41:14.739Z,1020.08
2018-10-16T06:42:14.569Z,1020.01
2018-10-16T06:43:14.604Z,1020.01
2018-10-16T06:44:14.639Z,1020.04
2018-10-16T06:45:14.674Z,1020.00
2018-10-16T06:46:14.711Z,1020.00
2018-10-16T06:47:14.799Z,1020.00
2018-10-16T06:48:15.043Z,1019.99
2018-10-16T06:49:14.815Z,1019.97
2018-10-16T06:50:14.865Z,1019.96
2018-10-16T06:51:14.884Z,1019.99
2018-10-16T06:52:14.923Z,1020.01
2018-10-16T06:53:15.006Z,1020.02
2018-10-16T06:54:14.993Z,1020.01
2018-10-16T06:55:15.098Z,1020.00
2018-10-16T06:56:15.062Z,1019.94
2018-10-16T06:57:15.101Z,1019.87
2018-10-16T06:58:15.137Z,1019.90
2018-10-16T06:59:15.172Z,1019.84
2018-10-16T07:00:15.285Z,1019.86
2018-10-16T07:01:15.248Z,1019.86
2018-10-16T07:02:15.285Z,1019.94
2018-10-16T07:03:15.316Z,1019.98
2018-10-16T07:04:15.354Z,1019.97
2018-10-16T07:05:15.390Z,1019.93
2018-10-16T07:06:15.428Z,1019.92
2018-10-16T07:07:15.742Z,1019.97
2018-10-16T07:08:15.503Z,1020.01
2018-10-16T07:09:15.540Z,1020.08
2018-10-16T07:10:15.576Z,1020.15
2018-10-16T07:11:15.612Z,1020.15
2018-10-16T07:12:15.651Z,1020.14
2018-10-16T07:13:15.689Z,1020.21
2018-10-16T07:14:15.727Z,1020.20
2018-10-16T07:15:15.760Z,1020.29
2018-10-16T07:16:15.798Z,1020.23
2018-10-16T07:17:15.836Z,1020.23
2018-10-16T07:18:15.876Z,1020.21
2018-10-16T07:19:15.909Z,1020.25
2018-10-16T07:20:15.950Z,1020.27
2018-10-16T07:21:16.047Z,1020.28
2018-10-16T07:22:16.025Z,1020.34
2018-10-16T07:23:16.123Z,1020.38
2018-10-16T07:24:16.099Z,1020.40
2018-10-16T07:25:16.137Z,1020.40
2018-10-16T07:26:16.176Z,1020.36
2018-10-16T07:27:16.222Z,1020.34
2018-10-16T07:28:16.251Z,1020.33
2018-10-16T07:29:16.289Z,1020.31
2018-10-16T07:30:16.344Z,1020.31
2018-10-16T07:31:16.367Z,1020.32
2018-10-16T07:32:16.403Z,1020.34
2018-10-16T07:33:16.445Z,1020.36
2018-10-16T07:34:16.485Z,1020.37
2018-10-16T07:35:16.517Z,1020.35
2018-10-16T07:36:16.557Z,1020.36
2018-10-16T07:37:16.596Z,1020.36
2018-10-16T07:38:16.762Z,1020.32
2018-10-16T07:39:16.672Z,1020.33
2018-10-16T07:40:16.712Z,1020.30
2018-10-16T07:41:16.754Z,1020.32
2018-10-16T07:42:16.790Z,1020.37
2018-10-16T07:43:16.828Z,1020.39
2018-10-16T07:44:16.867Z,1020.41
2018-10-16T07:45:16.916Z,1020.42
2018-10-16T07:46:16.946Z,1020.37
2018-10-16T07:47:16.991Z,1020.37
2018-10-16T07:48:17.048Z,1020.39
2018-10-16T07:49:17.065Z,1020.40
2018-10-16T07:50:17.104Z,1020.42
2018-10-16T07:51:17.144Z,1020.46
2018-10-16T07:52:17.182Z,1020.45
2018-10-16T07:53:17.226Z,1020.48
2018-10-16T07:54:17.263Z,1020.47
2018-10-16T07:55:17.305Z,1020.48
2018-10-16T07:56:17.344Z,1020.42
2018-10-16T07:57:17.518Z,1020.45
2018-10-16T07:58:17.427Z,1020.42
2018-10-16T07:59:17.464Z,1020.42
2018-10-16T08:00:17.503Z,1020.43
2018-10-16T08:01:17.545Z,1020.41
2018-10-16T08:02:17.584Z,1020.50
2018-10-16T08:03:17.627Z,1020.53
2018-10-16T08:04:17.665Z,1020.49
2018-10-16T08:05:17.711Z,1020.48
2018-10-16T08:06:17.747Z,1020.44
2018-10-16T08:07:17.789Z,1020.41
2018-10-16T08:08:17.833Z,1020.45
2018-10-16T08:09:17.868Z,1020.44
2018-10-16T08:10:17.915Z,1020.47
2018-10-16T08:11:17.971Z,1020.47
2018-10-16T08:12:17.989Z,1020.47
2018-10-16T08:13:18.030Z,1020.48
2018-10-16T08:14:18.071Z,1020.50
2018-10-16T08:15:18.112Z,1020.50
2018-10-16T08:16:18.158Z,1020.51
2018-10-16T08:17:18.300Z,1020.54
2018-10-16T08:18:18.236Z,1020.55
2018-10-16T08:19:18.275Z,1020.55
2018-10-16T08:20:18.315Z,1020.53
2018-10-16T08:21:18.358Z,1020.57
2018-10-16T08:22:18.398Z,1020.56
2018-10-16T08:23:18.437Z,1020.56
2018-10-16T08:24:18.480Z,1020.58
2018-10-16T08:25:18.522Z,1020.62
2018-10-16T08:26:18.565Z,1020.62
2018-10-16T08:27:18.604Z,1020.67
2018-10-16T08:28:18.646Z,1020.61
2018-10-16T08:29:18.689Z,1020.66
2018-10-16T08:30:18.790Z,1020.67
2018-10-16T08:31:18.773Z,1020.68
2018-10-16T08:32:18.814Z,1020.63
2018-10-16T08:33:18.854Z,1020.65
2018-10-16T08:34:19.002Z,1020.67
2018-10-16T08:35:18.939Z,1020.63
2018-10-16T08:36:19.044Z,1020.59
2018-10-16T08:37:19.131Z,1020.60
2018-10-16T08:38:19.065Z,1020.61
2018-10-16T08:39:19.104Z,1020.59
2018-10-16T08:40:19.145Z,1020.64
2018-10-16T08:41:19.188Z,1020.62
2018-10-16T08:42:19.232Z,1020.60
2018-10-16T08:43:19.273Z,1020.64
2018-10-16T08:44:19.316Z,1020.65
2018-10-16T08:45:19.360Z,1020.63
2018-10-16T08:46:19.501Z,1020.61
2018-10-16T08:47:19.505Z,1020.66
2018-10-16T08:48:19.485Z,1020.65
2018-10-16T08:49:19.527Z,1020.63
2018-10-16T08:50:19.567Z,1020.63
2018-10-16T08:51:19.608Z,1020.66
2018-10-16T08:52:19.652Z,1020.61
2018-10-16T08:53:19.693Z,1020.66
2018-10-16T08:54:19.740Z,1020.61
2018-10-16T08:55:19.780Z,1020.66
2018-10-16T08:56:19.822Z,1020.67
2018-10-16T08:57:19.863Z,1020.71
2018-10-16T08:58:19.910Z,1020.72
2018-10-16T08:59:19.948Z,1020.74
2018-10-16T09:00:19.992Z,1020.76
2018-10-16T09:01:20.035Z,1020.77
2018-10-16T09:02:20.080Z,1020.76
2018-10-16T09:03:20.120Z,1020.78
2018-10-16T09:04:20.165Z,1020.76
2018-10-16T09:05:20.210Z,1020.73
2018-10-16T09:06:20.253Z,1020.78
2018-10-16T09:07:20.294Z,1020.74
2018-10-16T09:08:20.341Z,1020.75
2018-10-16T09:09:20.381Z,1020.72
2018-10-16T09:10:20.422Z,1020.72
2018-10-16T09:11:20.466Z,1020.72
2018-10-16T09:12:20.508Z,1020.71
2018-10-16T09:13:20.553Z,1020.70
2018-10-16T09:14:20.627Z,1020.76
2018-10-16T09:15:20.645Z,1020.71
2018-10-16T09:16:20.682Z,1020.73
2018-10-16T09:17:20.726Z,1020.72
2018-10-16T09:18:20.771Z,1020.69
2018-10-16T09:19:20.812Z,1020.67
2018-10-16T09:20:20.856Z,1020.69
2018-10-16T09:21:20.902Z,1020.63
2018-10-16T09:22:20.945Z,1020.64
2018-10-16T09:23:20.990Z,1020.62
2018-10-16T09:24:21.038Z,1020.62
2018-10-16T09:25:21.081Z,1020.64
2018-10-16T09:26:21.121Z,1020.68
2018-10-16T09:27:21.164Z,1020.67
2018-10-16T09:28:21.210Z,1020.68
2018-10-16T09:29:21.252Z,1020.68
2018-10-16T09:30:21.300Z,1020.66
2018-10-16T09:31:21.342Z,1020.68
2018-10-16T09:32:21.385Z,1020.67
2018-10-16T09:33:21.432Z,1020.71
2018-10-16T09:34:21.473Z,1020.69
2018-10-16T09:35:21.517Z,1020.70
2018-10-16T09:36:21.566Z,1020.59
2018-10-16T09:37:21.619Z,1020.61
2018-10-16T09:38:21.653Z,1020.69
2018-10-16T09:39:21.697Z,1020.69
2018-10-16T09:40:21.738Z,1020.68
2018-10-16T09:41:21.783Z,1020.73
2018-10-16T09:42:21.829Z,1020.76
2018-10-16T09:43:21.875Z,1020.78
2018-10-16T09:44:21.917Z,1020.75
2018-10-16T09:45:21.964Z,1020.77
2018-10-16T09:46:22.009Z,1020.73
2018-10-16T09:47:22.052Z,1020.72
2018-10-16T09:48:22.093Z,1020.71
2018-10-16T09:49:22.177Z,1020.73
2018-10-16T09:50:22.185Z,1020.72
2018-10-16T09:51:22.227Z,1020.74
2018-10-16T09:52:22.274Z,1020.69
2018-10-16T09:53:22.322Z,1020.71
2018-10-16T09:54:22.365Z,1020.70
2018-10-16T09:55:22.408Z,1020.72
2018-10-16T09:56:22.452Z,1020.70
2018-10-16T09:57:22.498Z,1020.66
2018-10-16T09:58:22.547Z,1020.73
2018-10-16T09:59:22.584Z,1020.64
2018-10-16T10:00:22.628Z,1020.70
2018-10-16T10:01:22.675Z,1020.63
2018-10-16T10:02:22.722Z,1020.65
2018-10-16T10:03:22.767Z,1020.63
2018-10-16T10:04:22.808Z,1020.66
2018-10-16T10:05:22.857Z,1020.67
2018-10-16T10:06:22.904Z,1020.70
2018-10-16T10:07:22.942Z,1020.70
2018-10-16T10:08:22.987Z,1020.65
2018-10-16T10:09:23.034Z,1020.68
2018-10-16T10:10:23.077Z,1020.69
2018-10-16T10:11:23.121Z,1020.71
2018-10-16T10:12:23.166Z,1020.70
2018-10-16T10:13:23.212Z,1020.68
2018-10-16T10:14:23.257Z,1020.65
2018-10-16T10:15:23.300Z,1020.66
2018-10-16T10:16:23.344Z,1020.65
2018-10-16T10:17:23.394Z,1020.58
2018-10-16T10:18:23.436Z,1020.59
2018-10-16T10:19:23.483Z,1020.64
2018-10-16T10:20:23.526Z,1020.62
2018-10-16T10:21:23.578Z,1020.67
2018-10-16T10:22:23.617Z,1020.62
2018-10-16T10:23:23.741Z,1020.66
2018-10-16T10:24:23.707Z,1020.64
2018-10-16T10:25:23.894Z,1020.62
2018-10-16T10:26:23.794Z,1020.62
2018-10-16T10:27:23.839Z,1020.58
2018-10-16T10:28:23.887Z,1020.62
2018-10-16T10:29:23.931Z,1020.60
2018-10-16T10:30:23.975Z,1020.59
2018-10-16T10:31:24.016Z,1020.60
2018-10-16T10:32:24.060Z,1020.62
2018-10-16T10:33:24.107Z,1020.62
2018-10-16T10:34:24.156Z,1020.60
2018-10-16T10:35:24.230Z,1020.59
2018-10-16T10:36:24.251Z,1020.61
2018-10-16T10:37:24.286Z,1020.63
2018-10-16T10:38:24.331Z,1020.63
2018-10-16T10:39:24.371Z,1020.60
2018-10-16T10:40:24.416Z,1020.63
2018-10-16T10:41:24.464Z,1020.62
2018-10-16T10:42:24.507Z,1020.59
2018-10-16T10:43:24.548Z,1020.56
2018-10-16T10:44:24.595Z,1020.58
2018-10-16T10:45:24.638Z,1020.61
2018-10-16T10:46:24.682Z,1020.62
2018-10-16T10:47:24.730Z,1020.59
2018-10-16T10:48:24.772Z,1020.58
2018-10-16T10:49:24.819Z,1020.60
2018-10-16T10:50:25.153Z,1020.64
2018-10-16T10:51:25.311Z,1020.58
2018-10-16T10:52:24.951Z,1020.59
2018-10-16T10:53:24.993Z,1020.61
2018-10-16T10:54:25.037Z,1020.62
2018-10-16T10:55:25.082Z,1020.61
2018-10-16T10:56:25.148Z,1020.64
2018-10-16T10:57:25.171Z,1020.63
2018-10-16T10:58:25.217Z,1020.64
2018-10-16T10:59:25.272Z,1020.63
2018-10-16T11:00:25.302Z,1020.64
2018-10-16T11:01:25.350Z,1020.67
2018-10-16T11:02:25.396Z,1020.64
2018-10-16T11:03:25.583Z,1020.65
2018-10-16T11:04:25.481Z,1020.67
2018-10-16T11:05:25.528Z,1020.69
2018-10-16T11:06:25.570Z,1020.64
2018-10-16T11:07:25.614Z,1020.67
2018-10-16T11:08:25.658Z,1020.66
2018-10-16T11:09:25.704Z,1020.68
2018-10-16T11:10:25.751Z,1020.67
2018-10-16T11:11:25.791Z,1020.66
2018-10-16T11:12:25.837Z,1020.64
2018-10-16T11:13:25.880Z,1020.64
2018-10-16T11:14:25.924Z,1020.73
2018-10-16T11:15:25.969Z,1020.68
2018-10-16T11:16:26.014Z,1020.66
2018-10-16T11:17:26.062Z,1020.68
2018-10-16T11:18:26.102Z,1020.64
2018-10-16T11:19:26.170Z,1020.66
2018-10-16T11:20:26.189Z,1020.66
2018-10-16T11:21:26.236Z,1020.66
2018-10-16T11:22:26.280Z,1020.62
2018-10-16T11:23:26.320Z,1020.60
2018-10-16T11:24:26.367Z,1020.63
2018-10-16T11:25:26.412Z,1020.58
2018-10-16T11:26:26.455Z,1020.52
2018-10-16T11:27:26.507Z,1020.42
2018-10-16T11:28:26.541Z,1020.47
2018-10-16T11:29:26.584Z,1020.45
2018-10-16T11:30:26.629Z,1020.42
2018-10-16T11:31:26.669Z,1020.49
2018-10-16T11:32:26.714Z,1020.46
2018-10-16T11:33:26.758Z,1020.47
2018-10-16T11:34:26.803Z,1020.49
2018-10-16T11:35:26.844Z,1020.60
2018-10-16T11:36:26.887Z,1020.63
2018-10-16T11:37:26.930Z,1020.70
2018-10-16T11:38:26.968Z,1020.71
2018-10-16T11:39:27.013Z,1020.70
2018-10-16T11:40:27.053Z,1020.70
2018-10-16T11:41:27.096Z,1020.67
2018-10-16T11:42:27.137Z,1020.70
2018-10-16T11:43:27.177Z,1020.66
2018-10-16T11:44:27.219Z,1020.70
2018-10-16T11:45:27.262Z,1020.68
2018-10-16T11:46:27.307Z,1020.65
2018-10-16T11:47:27.351Z,1020.63
2018-10-16T11:48:27.388Z,1020.64
2018-10-16T11:49:27.432Z,1020.61
2018-10-16T11:50:27.477Z,1020.59
2018-10-16T11:51:27.515Z,1020.61
2018-10-16T11:52:27.557Z,1020.59
2018-10-16T11:53:27.605Z,1020.52
2018-10-16T11:54:27.642Z,1020.43
2018-10-16T11:55:27.683Z,1020.41
2018-10-16T11:56:27.731Z,1020.42
2018-10-16T11:57:27.781Z,1020.38
2018-10-16T11:58:27.812Z,1020.40
2018-10-16T11:59:27.858Z,1020.38
2018-10-16T12:00:27.896Z,1020.39
2018-10-16T12:01:27.942Z,1020.40
2018-10-16T12:02:28.090Z,1020.37
2018-10-16T12:03:28.026Z,1020.41
2018-10-16T12:04:28.061Z,1020.36
2018-10-16T12:05:28.108Z,1020.38